sensor_id;sensor_type;location;lat;lon;timestamp;P1;durP1;ratioP1;P2;durP2;ratioP2
438;SDS011;206;48.782;9.252;2023-07-30T00:01:24;4.23;;;3.40;;
438;SDS011;206;48.782;9.252;2023-07-30T00:03:49;4.80;;;2.97;;
438;SDS011;206;48.782;9.252;2023-07-30T00:06:15;4.37;;;3.13;;
438;SDS011;206;48.782;9.252;2023-07-30T00:08:41;4.30;;;3.13;;
438;SDS011;206;48.782;9.252;2023-07-30T00:11:06;3.87;;;3.23;;
438;SDS011;206;48.782;9.252;2023-07-30T00:13:32;3.07;;;2.93;;
438;SDS011;206;48.782;9.252;2023-07-30T00:15:57;6.13;;;2.17;;
438;SDS011;206;48.782;9.252;2023-07-30T00:18:23;2.33;;;2.20;;
438;SDS011;206;48.782;9.252;2023-07-30T00:20:48;5.20;;;3.17;;
438;SDS011;206;48.782;9.252;2023-07-30T00:23:14;3.50;;;2.63;;
438;SDS011;206;48.782;9.252;2023-07-30T00:25:39;5.13;;;2.80;;
438;SDS011;206;48.782;9.252;2023-07-30T00:28:05;3.63;;;2.63;;
438;SDS011;206;48.782;9.252;2023-07-30T00:30:30;4.53;;;2.97;;
438;SDS011;206;48.782;9.252;2023-07-30T00:32:56;7.27;;;3.07;;
438;SDS011;206;48.782;9.252;2023-07-30T00:35:22;7.30;;;3.53;;
438;SDS011;206;48.782;9.252;2023-07-30T00:37:47;3.20;;;3.00;;
438;SDS011;206;48.782;9.252;2023-07-30T00:40:13;4.60;;;2.60;;
438;SDS011;206;48.782;9.252;2023-07-30T00:42:38;4.80;;;2.77;;
438;SDS011;206;48.782;9.252;2023-07-30T00:45:04;2.20;;;1.97;;
438;SDS011;206;48.782;9.252;2023-07-30T00:47:30;2.77;;;1.93;;
438;SDS011;206;48.782;9.252;2023-07-30T00:49:56;5.63;;;2.70;;
438;SDS011;206;48.782;9.252;2023-07-30T00:52:22;3.07;;;2.70;;
438;SDS011;206;48.782;9.252;2023-07-30T00:54:49;2.70;;;2.30;;
438;SDS011;206;48.782;9.252;2023-07-30T00:57:16;3.20;;;2.43;;
438;SDS011;206;48.782;9.252;2023-07-30T00:59:43;3.80;;;2.17;;
438;SDS011;206;48.782;9.252;2023-07-30T01:02:09;3.30;;;3.17;;
438;SDS011;206;48.782;9.252;2023-07-30T01:04:35;8.10;;;3.47;;
438;SDS011;206;48.782;9.252;2023-07-30T01:07:05;2.83;;;2.37;;
438;SDS011;206;48.782;9.252;2023-07-30T01:09:31;3.20;;;2.27;;
438;SDS011;206;48.782;9.252;2023-07-30T01:11:57;3.93;;;3.17;;
438;SDS011;206;48.782;9.252;2023-07-30T01:14:24;3.40;;;2.60;;
438;SDS011;206;48.782;9.252;2023-07-30T01:16:51;3.10;;;2.90;;
438;SDS011;206;48.782;9.252;2023-07-30T01:19:17;3.27;;;3.10;;
438;SDS011;206;48.782;9.252;2023-07-30T01:21:43;5.23;;;3.37;;
438;SDS011;206;48.782;9.252;2023-07-30T01:24:09;4.20;;;3.33;;
438;SDS011;206;48.782;9.252;2023-07-30T01:29:03;3.67;;;3.37;;
438;SDS011;206;48.782;9.252;2023-07-30T01:31:35;5.50;;;3.50;;
438;SDS011;206;48.782;9.252;2023-07-30T01:34:03;4.43;;;3.30;;
438;SDS011;206;48.782;9.252;2023-07-30T01:36:30;3.63;;;3.37;;
438;SDS011;206;48.782;9.252;2023-07-30T01:38:58;5.13;;;3.30;;
438;SDS011;206;48.782;9.252;2023-07-30T01:41:24;5.93;;;3.63;;
438;SDS011;206;48.782;9.252;2023-07-30T01:43:50;4.47;;;4.20;;
438;SDS011;206;48.782;9.252;2023-07-30T01:46:15;3.93;;;3.50;;
438;SDS011;206;48.782;9.252;2023-07-30T01:48:41;4.07;;;3.70;;
438;SDS011;206;48.782;9.252;2023-07-30T01:51:06;5.00;;;4.00;;
438;SDS011;206;48.782;9.252;2023-07-30T01:53:32;7.00;;;3.33;;
438;SDS011;206;48.782;9.252;2023-07-30T01:55:58;14.67;;;4.17;;
438;SDS011;206;48.782;9.252;2023-07-30T01:58:23;5.67;;;3.73;;
438;SDS011;206;48.782;9.252;2023-07-30T02:00:49;4.30;;;3.07;;
438;SDS011;206;48.782;9.252;2023-07-30T02:03:14;3.30;;;3.17;;
438;SDS011;206;48.782;9.252;2023-07-30T02:05:40;4.40;;;3.40;;
438;SDS011;206;48.782;9.252;2023-07-30T02:08:05;4.63;;;3.80;;
438;SDS011;206;48.782;9.252;2023-07-30T02:10:31;5.67;;;3.60;;
438;SDS011;206;48.782;9.252;2023-07-30T02:12:56;6.63;;;4.37;;
438;SDS011;206;48.782;9.252;2023-07-30T02:15:22;5.03;;;3.43;;
438;SDS011;206;48.782;9.252;2023-07-30T02:17:48;5.43;;;3.87;;
438;SDS011;206;48.782;9.252;2023-07-30T02:20:13;8.50;;;4.13;;
438;SDS011;206;48.782;9.252;2023-07-30T02:22:39;4.47;;;4.17;;
438;SDS011;206;48.782;9.252;2023-07-30T02:25:04;5.50;;;4.30;;
438;SDS011;206;48.782;9.252;2023-07-30T02:27:30;3.03;;;2.90;;
438;SDS011;206;48.782;9.252;2023-07-30T02:29:56;4.50;;;4.20;;
438;SDS011;206;48.782;9.252;2023-07-30T02:32:22;7.03;;;4.03;;
438;SDS011;206;48.782;9.252;2023-07-30T02:34:47;5.10;;;3.90;;
438;SDS011;206;48.782;9.252;2023-07-30T02:37:13;4.40;;;4.10;;
438;SDS011;206;48.782;9.252;2023-07-30T02:39:38;5.50;;;3.80;;
438;SDS011;206;48.782;9.252;2023-07-30T02:42:04;3.77;;;3.60;;
438;SDS011;206;48.782;9.252;2023-07-30T02:44:30;4.30;;;3.57;;
438;SDS011;206;48.782;9.252;2023-07-30T02:46:55;4.00;;;3.80;;
438;SDS011;206;48.782;9.252;2023-07-30T02:49:21;3.30;;;3.10;;
438;SDS011;206;48.782;9.252;2023-07-30T02:51:46;4.60;;;4.10;;
438;SDS011;206;48.782;9.252;2023-07-30T02:54:14;4.30;;;4.07;;
438;SDS011;206;48.782;9.252;2023-07-30T02:56:41;3.80;;;3.60;;
438;SDS011;206;48.782;9.252;2023-07-30T02:59:08;3.93;;;2.60;;
438;SDS011;206;48.782;9.252;2023-07-30T03:01:33;3.40;;;3.30;;
438;SDS011;206;48.782;9.252;2023-07-30T03:03:59;4.60;;;3.30;;
438;SDS011;206;48.782;9.252;2023-07-30T03:06:24;4.60;;;3.03;;
438;SDS011;206;48.782;9.252;2023-07-30T03:08:50;3.67;;;3.23;;
438;SDS011;206;48.782;9.252;2023-07-30T03:11:16;3.00;;;2.80;;
438;SDS011;206;48.782;9.252;2023-07-30T03:13:41;3.63;;;3.43;;
438;SDS011;206;48.782;9.252;2023-07-30T03:16:07;3.53;;;3.10;;
438;SDS011;206;48.782;9.252;2023-07-30T03:18:32;4.90;;;2.90;;
438;SDS011;206;48.782;9.252;2023-07-30T03:21:01;4.40;;;2.70;;
438;SDS011;206;48.782;9.252;2023-07-30T03:23:28;3.70;;;2.90;;
438;SDS011;206;48.782;9.252;2023-07-30T03:25:54;3.43;;;2.93;;
438;SDS011;206;48.782;9.252;2023-07-30T03:28:19;4.00;;;3.80;;
438;SDS011;206;48.782;9.252;2023-07-30T03:30:45;3.73;;;3.17;;
438;SDS011;206;48.782;9.252;2023-07-30T03:33:11;3.00;;;2.80;;
438;SDS011;206;48.782;9.252;2023-07-30T03:35:36;3.27;;;3.10;;
438;SDS011;206;48.782;9.252;2023-07-30T03:38:02;5.47;;;2.67;;
438;SDS011;206;48.782;9.252;2023-07-30T03:40:28;4.30;;;2.97;;
438;SDS011;206;48.782;9.252;2023-07-30T03:42:54;2.90;;;2.70;;
438;SDS011;206;48.782;9.252;2023-07-30T03:45:20;2.70;;;2.50;;
438;SDS011;206;48.782;9.252;2023-07-30T03:47:45;3.83;;;2.37;;
438;SDS011;206;48.782;9.252;2023-07-30T03:50:11;2.90;;;2.50;;
438;SDS011;206;48.782;9.252;2023-07-30T03:52:36;2.47;;;2.27;;
438;SDS011;206;48.782;9.252;2023-07-30T03:55:02;3.20;;;3.00;;
438;SDS011;206;48.782;9.252;2023-07-30T03:57:28;2.87;;;2.70;;
438;SDS011;206;48.782;9.252;2023-07-30T03:59:53;3.00;;;2.63;;
438;SDS011;206;48.782;9.252;2023-07-30T04:02:19;2.97;;;2.60;;
438;SDS011;206;48.782;9.252;2023-07-30T04:04:45;2.93;;;2.73;;
438;SDS011;206;48.782;9.252;2023-07-30T04:07:13;3.67;;;3.47;;
438;SDS011;206;48.782;9.252;2023-07-30T04:09:39;3.90;;;3.17;;
438;SDS011;206;48.782;9.252;2023-07-30T04:12:04;6.23;;;2.70;;
438;SDS011;206;48.782;9.252;2023-07-30T04:14:30;4.00;;;3.13;;
438;SDS011;206;48.782;9.252;2023-07-30T04:16:56;5.67;;;2.97;;
438;SDS011;206;48.782;9.252;2023-07-30T04:19:21;2.83;;;2.60;;
438;SDS011;206;48.782;9.252;2023-07-30T04:21:47;7.53;;;2.90;;
438;SDS011;206;48.782;9.252;2023-07-30T04:24:12;4.10;;;2.90;;
438;SDS011;206;48.782;9.252;2023-07-30T04:26:38;4.77;;;3.17;;
438;SDS011;206;48.782;9.252;2023-07-30T04:29:03;3.23;;;2.40;;
438;SDS011;206;48.782;9.252;2023-07-30T04:31:29;3.57;;;3.37;;
438;SDS011;206;48.782;9.252;2023-07-30T04:33:55;2.70;;;2.50;;
438;SDS011;206;48.782;9.252;2023-07-30T04:36:20;3.33;;;3.13;;
438;SDS011;206;48.782;9.252;2023-07-30T04:38:46;3.37;;;3.17;;
438;SDS011;206;48.782;9.252;2023-07-30T04:41:11;4.07;;;2.83;;
438;SDS011;206;48.782;9.252;2023-07-30T04:43:37;4.67;;;3.73;;
438;SDS011;206;48.782;9.252;2023-07-30T04:46:02;3.47;;;3.27;;
438;SDS011;206;48.782;9.252;2023-07-30T04:48:28;3.60;;;3.43;;
438;SDS011;206;48.782;9.252;2023-07-30T04:50:53;4.17;;;3.30;;
438;SDS011;206;48.782;9.252;2023-07-30T04:53:19;3.17;;;2.67;;
438;SDS011;206;48.782;9.252;2023-07-30T04:55:45;5.27;;;2.70;;
438;SDS011;206;48.782;9.252;2023-07-30T04:58:11;6.53;;;3.60;;
438;SDS011;206;48.782;9.252;2023-07-30T05:00:37;4.90;;;3.07;;
438;SDS011;206;48.782;9.252;2023-07-30T05:03:02;4.53;;;2.27;;
438;SDS011;206;48.782;9.252;2023-07-30T05:05:28;4.63;;;2.93;;
438;SDS011;206;48.782;9.252;2023-07-30T05:07:54;2.63;;;2.10;;
438;SDS011;206;48.782;9.252;2023-07-30T05:10:19;4.07;;;2.93;;
438;SDS011;206;48.782;9.252;2023-07-30T05:12:45;4.27;;;2.20;;
438;SDS011;206;48.782;9.252;2023-07-30T05:15:10;2.87;;;2.67;;
438;SDS011;206;48.782;9.252;2023-07-30T05:17:36;4.50;;;3.17;;
438;SDS011;206;48.782;9.252;2023-07-30T05:20:01;3.33;;;3.13;;
438;SDS011;206;48.782;9.252;2023-07-30T05:22:27;4.27;;;3.03;;
438;SDS011;206;48.782;9.252;2023-07-30T05:24:53;10.00;;;3.90;;
438;SDS011;206;48.782;9.252;2023-07-30T05:27:18;7.23;;;3.90;;
438;SDS011;206;48.782;9.252;2023-07-30T05:29:44;3.33;;;2.90;;
438;SDS011;206;48.782;9.252;2023-07-30T05:32:09;3.70;;;3.27;;
438;SDS011;206;48.782;9.252;2023-07-30T05:34:35;3.60;;;3.13;;
438;SDS011;206;48.782;9.252;2023-07-30T05:37:01;4.93;;;3.70;;
438;SDS011;206;48.782;9.252;2023-07-30T05:39:26;8.03;;;3.50;;
438;SDS011;206;48.782;9.252;2023-07-30T05:41:52;2.77;;;2.57;;
438;SDS011;206;48.782;9.252;2023-07-30T05:44:17;3.60;;;3.23;;
438;SDS011;206;48.782;9.252;2023-07-30T05:46:43;4.30;;;3.10;;
438;SDS011;206;48.782;9.252;2023-07-30T05:49:09;3.30;;;3.10;;
438;SDS011;206;48.782;9.252;2023-07-30T05:51:34;4.73;;;3.07;;
438;SDS011;206;48.782;9.252;2023-07-30T05:54:00;3.40;;;3.10;;
438;SDS011;206;48.782;9.252;2023-07-30T05:56:25;4.67;;;3.30;;
438;SDS011;206;48.782;9.252;2023-07-30T05:58:51;3.97;;;2.93;;
438;SDS011;206;48.782;9.252;2023-07-30T06:01:16;3.43;;;3.23;;
438;SDS011;206;48.782;9.252;2023-07-30T06:03:42;4.33;;;4.03;;
438;SDS011;206;48.782;9.252;2023-07-30T06:06:08;5.07;;;3.47;;
438;SDS011;206;48.782;9.252;2023-07-30T06:08:33;3.83;;;3.63;;
438;SDS011;206;48.782;9.252;2023-07-30T06:11:02;4.67;;;4.27;;
438;SDS011;206;48.782;9.252;2023-07-30T06:13:28;3.17;;;2.97;;
438;SDS011;206;48.782;9.252;2023-07-30T06:15:54;2.63;;;2.43;;
438;SDS011;206;48.782;9.252;2023-07-30T06:18:20;5.07;;;2.53;;
438;SDS011;206;48.782;9.252;2023-07-30T06:20:46;5.77;;;3.67;;
438;SDS011;206;48.782;9.252;2023-07-30T06:23:11;5.00;;;3.53;;
438;SDS011;206;48.782;9.252;2023-07-30T06:25:37;5.10;;;2.57;;
438;SDS011;206;48.782;9.252;2023-07-30T06:28:04;3.03;;;2.83;;
438;SDS011;206;48.782;9.252;2023-07-30T06:30:29;3.70;;;2.63;;
438;SDS011;206;48.782;9.252;2023-07-30T06:32:56;3.43;;;3.23;;
438;SDS011;206;48.782;9.252;2023-07-30T06:35:22;5.20;;;3.70;;
438;SDS011;206;48.782;9.252;2023-07-30T06:37:48;8.17;;;3.47;;
438;SDS011;206;48.782;9.252;2023-07-30T06:40:14;2.60;;;2.50;;
438;SDS011;206;48.782;9.252;2023-07-30T06:42:40;3.57;;;2.50;;
438;SDS011;206;48.782;9.252;2023-07-30T06:45:05;2.40;;;2.20;;
438;SDS011;206;48.782;9.252;2023-07-30T06:47:31;2.60;;;2.40;;
438;SDS011;206;48.782;9.252;2023-07-30T06:49:57;2.53;;;2.40;;
438;SDS011;206;48.782;9.252;2023-07-30T06:52:22;6.53;;;3.83;;
438;SDS011;206;48.782;9.252;2023-07-30T06:54:48;2.40;;;2.20;;
438;SDS011;206;48.782;9.252;2023-07-30T06:57:14;4.53;;;2.60;;
438;SDS011;206;48.782;9.252;2023-07-30T06:59:39;3.23;;;2.67;;
438;SDS011;206;48.782;9.252;2023-07-30T07:02:05;5.33;;;3.00;;
438;SDS011;206;48.782;9.252;2023-07-30T07:04:31;2.67;;;2.00;;
438;SDS011;206;48.782;9.252;2023-07-30T07:06:57;2.80;;;2.10;;
438;SDS011;206;48.782;9.252;2023-07-30T07:09:22;2.60;;;2.17;;
438;SDS011;206;48.782;9.252;2023-07-30T07:11:48;3.30;;;2.17;;
438;SDS011;206;48.782;9.252;2023-07-30T07:14:13;2.07;;;1.40;;
438;SDS011;206;48.782;9.252;2023-07-30T07:16:39;3.03;;;2.20;;
438;SDS011;206;48.782;9.252;2023-07-30T07:19:04;2.97;;;1.40;;
438;SDS011;206;48.782;9.252;2023-07-30T07:21:30;3.33;;;2.27;;
438;SDS011;206;48.782;9.252;2023-07-30T07:23:56;2.57;;;2.37;;
438;SDS011;206;48.782;9.252;2023-07-30T07:26:21;3.17;;;1.93;;
438;SDS011;206;48.782;9.252;2023-07-30T07:28:47;5.00;;;2.33;;
438;SDS011;206;48.782;9.252;2023-07-30T07:31:12;6.13;;;2.30;;
438;SDS011;206;48.782;9.252;2023-07-30T07:33:38;8.60;;;2.20;;
438;SDS011;206;48.782;9.252;2023-07-30T07:36:05;7.63;;;1.77;;
438;SDS011;206;48.782;9.252;2023-07-30T07:38:31;1.93;;;1.87;;
438;SDS011;206;48.782;9.252;2023-07-30T07:40:58;2.43;;;2.07;;
438;SDS011;206;48.782;9.252;2023-07-30T07:43:24;2.63;;;1.60;;
438;SDS011;206;48.782;9.252;2023-07-30T07:45:49;4.10;;;1.60;;
438;SDS011;206;48.782;9.252;2023-07-30T07:48:15;1.30;;;1.10;;
438;SDS011;206;48.782;9.252;2023-07-30T07:50:41;2.67;;;1.43;;
438;SDS011;206;48.782;9.252;2023-07-30T07:53:06;1.73;;;1.63;;
438;SDS011;206;48.782;9.252;2023-07-30T07:55:32;1.47;;;1.30;;
438;SDS011;206;48.782;9.252;2023-07-30T07:57:58;1.30;;;1.13;;
438;SDS011;206;48.782;9.252;2023-07-30T08:00:23;2.03;;;1.40;;
438;SDS011;206;48.782;9.252;2023-07-30T08:02:49;2.50;;;1.17;;
438;SDS011;206;48.782;9.252;2023-07-30T08:05:14;1.87;;;1.80;;
438;SDS011;206;48.782;9.252;2023-07-30T08:07:41;1.53;;;1.17;;
438;SDS011;206;48.782;9.252;2023-07-30T08:10:06;1.60;;;1.60;;
438;SDS011;206;48.782;9.252;2023-07-30T08:12:32;3.13;;;3.00;;
438;SDS011;206;48.782;9.252;2023-07-30T08:14:58;1.80;;;1.70;;
438;SDS011;206;48.782;9.252;2023-07-30T08:17:24;1.67;;;1.37;;
438;SDS011;206;48.782;9.252;2023-07-30T08:19:50;1.50;;;1.40;;
438;SDS011;206;48.782;9.252;2023-07-30T08:22:15;2.60;;;1.23;;
438;SDS011;206;48.782;9.252;2023-07-30T08:24:41;1.70;;;1.50;;
438;SDS011;206;48.782;9.252;2023-07-30T08:27:06;1.73;;;1.63;;
438;SDS011;206;48.782;9.252;2023-07-30T08:29:32;2.23;;;1.30;;
438;SDS011;206;48.782;9.252;2023-07-30T08:31:57;3.00;;;1.20;;
438;SDS011;206;48.782;9.252;2023-07-30T08:34:23;1.83;;;1.30;;
438;SDS011;206;48.782;9.252;2023-07-30T08:36:49;1.80;;;1.20;;
438;SDS011;206;48.782;9.252;2023-07-30T08:39:14;1.77;;;1.23;;
438;SDS011;206;48.782;9.252;2023-07-30T08:41:40;3.03;;;1.50;;
438;SDS011;206;48.782;9.252;2023-07-30T08:44:06;2.00;;;1.37;;
438;SDS011;206;48.782;9.252;2023-07-30T08:46:31;1.87;;;1.53;;
438;SDS011;206;48.782;9.252;2023-07-30T08:48:57;2.63;;;1.73;;
438;SDS011;206;48.782;9.252;2023-07-30T08:51:23;2.50;;;1.60;;
438;SDS011;206;48.782;9.252;2023-07-30T08:53:51;2.47;;;1.60;;
438;SDS011;206;48.782;9.252;2023-07-30T08:56:17;3.47;;;1.70;;
438;SDS011;206;48.782;9.252;2023-07-30T08:58:43;3.70;;;1.40;;
438;SDS011;206;48.782;9.252;2023-07-30T09:01:11;1.63;;;1.47;;
438;SDS011;206;48.782;9.252;2023-07-30T09:03:39;2.87;;;1.60;;
438;SDS011;206;48.782;9.252;2023-07-30T09:06:06;4.10;;;1.40;;
438;SDS011;206;48.782;9.252;2023-07-30T09:08:31;2.50;;;2.13;;
438;SDS011;206;48.782;9.252;2023-07-30T09:11:06;2.53;;;1.40;;
438;SDS011;206;48.782;9.252;2023-07-30T09:13:38;2.03;;;1.77;;
438;SDS011;206;48.782;9.252;2023-07-30T09:16:08;1.90;;;1.67;;
438;SDS011;206;48.782;9.252;2023-07-30T09:18:41;1.13;;;1.07;;
438;SDS011;206;48.782;9.252;2023-07-30T09:21:12;6.53;;;1.80;;
438;SDS011;206;48.782;9.252;2023-07-30T09:23:44;2.87;;;1.53;;
438;SDS011;206;48.782;9.252;2023-07-30T09:26:12;2.53;;;1.70;;
438;SDS011;206;48.782;9.252;2023-07-30T09:28:39;3.10;;;1.60;;
438;SDS011;206;48.782;9.252;2023-07-30T09:31:06;8.57;;;2.90;;
438;SDS011;206;48.782;9.252;2023-07-30T09:33:33;2.67;;;2.07;;
438;SDS011;206;48.782;9.252;2023-07-30T09:36:03;2.47;;;2.03;;
438;SDS011;206;48.782;9.252;2023-07-30T09:38:29;3.33;;;1.80;;
438;SDS011;206;48.782;9.252;2023-07-30T09:41:01;1.93;;;1.60;;
438;SDS011;206;48.782;9.252;2023-07-30T09:43:33;1.53;;;1.43;;
438;SDS011;206;48.782;9.252;2023-07-30T09:46:03;2.00;;;1.70;;
438;SDS011;206;48.782;9.252;2023-07-30T09:48:31;2.20;;;1.80;;
438;SDS011;206;48.782;9.252;2023-07-30T09:51:01;1.70;;;1.70;;
438;SDS011;206;48.782;9.252;2023-07-30T09:53:31;1.90;;;1.67;;
438;SDS011;206;48.782;9.252;2023-07-30T09:56:04;1.53;;;1.50;;
438;SDS011;206;48.782;9.252;2023-07-30T09:58:31;3.63;;;1.80;;
438;SDS011;206;48.782;9.252;2023-07-30T10:00:58;1.97;;;1.83;;
438;SDS011;206;48.782;9.252;2023-07-30T10:03:24;2.20;;;1.77;;
438;SDS011;206;48.782;9.252;2023-07-30T10:05:51;1.40;;;1.30;;
438;SDS011;206;48.782;9.252;2023-07-30T10:08:21;1.37;;;1.23;;
438;SDS011;206;48.782;9.252;2023-07-30T10:10:50;2.00;;;1.63;;
438;SDS011;206;48.782;9.252;2023-07-30T10:13:18;1.80;;;1.70;;
438;SDS011;206;48.782;9.252;2023-07-30T10:15:45;2.13;;;1.70;;
438;SDS011;206;48.782;9.252;2023-07-30T10:18:11;5.43;;;2.97;;
438;SDS011;206;48.782;9.252;2023-07-30T10:20:37;2.63;;;2.00;;
438;SDS011;206;48.782;9.252;2023-07-30T10:23:05;1.70;;;1.70;;
438;SDS011;206;48.782;9.252;2023-07-30T10:31:09;2.77;;;2.17;;
438;SDS011;206;48.782;9.252;2023-07-30T10:33:43;2.27;;;2.07;;
438;SDS011;206;48.782;9.252;2023-07-30T10:39:21;2.20;;;2.00;;
438;SDS011;206;48.782;9.252;2023-07-30T10:41:53;2.20;;;2.00;;
438;SDS011;206;48.782;9.252;2023-07-30T10:46:49;2.37;;;2.20;;
438;SDS011;206;48.782;9.252;2023-07-30T10:49:16;3.33;;;2.03;;
438;SDS011;206;48.782;9.252;2023-07-30T10:51:41;2.10;;;1.93;;
438;SDS011;206;48.782;9.252;2023-07-30T10:54:07;2.53;;;2.00;;
438;SDS011;206;48.782;9.252;2023-07-30T10:56:34;2.87;;;1.93;;
438;SDS011;206;48.782;9.252;2023-07-30T10:59:02;3.27;;;1.73;;
438;SDS011;206;48.782;9.252;2023-07-30T11:01:30;2.13;;;1.80;;
438;SDS011;206;48.782;9.252;2023-07-30T11:03:56;2.50;;;2.20;;
438;SDS011;206;48.782;9.252;2023-07-30T11:06:25;2.47;;;2.27;;
438;SDS011;206;48.782;9.252;2023-07-30T11:08:51;2.27;;;2.10;;
438;SDS011;206;48.782;9.252;2023-07-30T11:11:17;3.00;;;1.80;;
438;SDS011;206;48.782;9.252;2023-07-30T11:13:44;2.20;;;1.83;;
438;SDS011;206;48.782;9.252;2023-07-30T11:16:11;4.00;;;2.07;;
438;SDS011;206;48.782;9.252;2023-07-30T11:18:38;2.17;;;1.37;;
438;SDS011;206;48.782;9.252;2023-07-30T11:21:05;5.33;;;1.77;;
438;SDS011;206;48.782;9.252;2023-07-30T11:23:44;3.80;;;2.03;;
438;SDS011;206;48.782;9.252;2023-07-30T11:26:14;3.40;;;2.40;;
438;SDS011;206;48.782;9.252;2023-07-30T11:28:41;1.90;;;1.90;;
438;SDS011;206;48.782;9.252;2023-07-30T11:31:11;3.00;;;1.67;;
438;SDS011;206;48.782;9.252;2023-07-30T11:33:42;1.77;;;1.63;;
438;SDS011;206;48.782;9.252;2023-07-30T11:36:11;3.90;;;2.20;;
438;SDS011;206;48.782;9.252;2023-07-30T11:38:39;2.73;;;2.07;;
438;SDS011;206;48.782;9.252;2023-07-30T11:41:05;2.60;;;2.47;;
438;SDS011;206;48.782;9.252;2023-07-30T11:43:35;1.83;;;1.73;;
438;SDS011;206;48.782;9.252;2023-07-30T11:46:08;2.70;;;1.80;;
438;SDS011;206;48.782;9.252;2023-07-30T11:48:42;6.03;;;2.50;;
438;SDS011;206;48.782;9.252;2023-07-30T11:51:19;1.73;;;1.50;;
438;SDS011;206;48.782;9.252;2023-07-30T11:53:56;1.87;;;1.77;;
438;SDS011;206;48.782;9.252;2023-07-30T11:56:24;2.10;;;1.90;;
438;SDS011;206;48.782;9.252;2023-07-30T11:58:54;4.90;;;1.93;;
438;SDS011;206;48.782;9.252;2023-07-30T12:01:23;2.90;;;2.07;;
438;SDS011;206;48.782;9.252;2023-07-30T12:03:50;2.03;;;1.60;;
438;SDS011;206;48.782;9.252;2023-07-30T12:06:18;2.30;;;1.87;;
438;SDS011;206;48.782;9.252;2023-07-30T12:08:44;2.40;;;2.13;;
438;SDS011;206;48.782;9.252;2023-07-30T12:11:10;4.30;;;1.90;;
438;SDS011;206;48.782;9.252;2023-07-30T12:13:43;1.63;;;1.60;;
438;SDS011;206;48.782;9.252;2023-07-30T12:16:10;1.70;;;1.53;;
438;SDS011;206;48.782;9.252;2023-07-30T12:18:37;6.83;;;2.97;;
438;SDS011;206;48.782;9.252;2023-07-30T12:21:03;2.93;;;1.97;;
438;SDS011;206;48.782;9.252;2023-07-30T12:23:31;2.43;;;1.70;;
438;SDS011;206;48.782;9.252;2023-07-30T12:25:57;4.03;;;2.73;;
438;SDS011;206;48.782;9.252;2023-07-30T12:28:23;3.70;;;1.60;;
438;SDS011;206;48.782;9.252;2023-07-30T12:30:48;3.83;;;2.10;;
438;SDS011;206;48.782;9.252;2023-07-30T12:33:14;3.00;;;2.43;;
438;SDS011;206;48.782;9.252;2023-07-30T12:35:39;3.73;;;2.43;;
438;SDS011;206;48.782;9.252;2023-07-30T12:38:05;5.20;;;2.33;;
438;SDS011;206;48.782;9.252;2023-07-30T12:40:30;6.07;;;1.63;;
438;SDS011;206;48.782;9.252;2023-07-30T12:42:59;5.00;;;1.87;;
438;SDS011;206;48.782;9.252;2023-07-30T12:45:26;2.50;;;2.30;;
438;SDS011;206;48.782;9.252;2023-07-30T12:47:52;2.97;;;1.90;;
438;SDS011;206;48.782;9.252;2023-07-30T12:50:17;3.33;;;2.23;;
438;SDS011;206;48.782;9.252;2023-07-30T12:52:43;3.23;;;2.07;;
438;SDS011;206;48.782;9.252;2023-07-30T12:55:09;1.87;;;1.80;;
438;SDS011;206;48.782;9.252;2023-07-30T12:57:35;2.10;;;1.97;;
438;SDS011;206;48.782;9.252;2023-07-30T13:00:01;2.83;;;2.03;;
438;SDS011;206;48.782;9.252;2023-07-30T13:02:27;2.07;;;1.57;;
438;SDS011;206;48.782;9.252;2023-07-30T13:04:52;2.13;;;2.00;;
438;SDS011;206;48.782;9.252;2023-07-30T13:07:18;2.63;;;2.07;;
438;SDS011;206;48.782;9.252;2023-07-30T13:09:45;2.47;;;2.10;;
438;SDS011;206;48.782;9.252;2023-07-30T13:12:12;1.50;;;1.50;;
438;SDS011;206;48.782;9.252;2023-07-30T13:14:37;2.23;;;1.97;;
438;SDS011;206;48.782;9.252;2023-07-30T13:17:03;2.33;;;1.87;;
438;SDS011;206;48.782;9.252;2023-07-30T13:19:29;3.60;;;1.87;;
438;SDS011;206;48.782;9.252;2023-07-30T13:21:56;2.83;;;1.37;;
438;SDS011;206;48.782;9.252;2023-07-30T13:24:21;1.67;;;1.57;;
438;SDS011;206;48.782;9.252;2023-07-30T13:26:47;2.23;;;1.87;;
438;SDS011;206;48.782;9.252;2023-07-30T13:29:13;3.80;;;1.67;;
438;SDS011;206;48.782;9.252;2023-07-30T13:31:38;2.60;;;1.67;;
438;SDS011;206;48.782;9.252;2023-07-30T13:34:04;2.57;;;2.03;;
438;SDS011;206;48.782;9.252;2023-07-30T13:36:29;3.30;;;2.00;;
438;SDS011;206;48.782;9.252;2023-07-30T13:38:55;4.07;;;1.90;;
438;SDS011;206;48.782;9.252;2023-07-30T13:41:20;3.87;;;2.00;;
438;SDS011;206;48.782;9.252;2023-07-30T13:43:46;4.43;;;1.60;;
438;SDS011;206;48.782;9.252;2023-07-30T13:46:11;3.47;;;2.17;;
438;SDS011;206;48.782;9.252;2023-07-30T13:48:37;3.57;;;1.83;;
438;SDS011;206;48.782;9.252;2023-07-30T13:51:02;2.20;;;1.60;;
438;SDS011;206;48.782;9.252;2023-07-30T13:53:28;2.37;;;2.07;;
438;SDS011;206;48.782;9.252;2023-07-30T13:55:54;6.80;;;2.13;;
438;SDS011;206;48.782;9.252;2023-07-30T13:58:19;2.37;;;1.80;;
438;SDS011;206;48.782;9.252;2023-07-30T14:00:45;2.60;;;1.87;;
438;SDS011;206;48.782;9.252;2023-07-30T14:03:10;2.53;;;1.87;;
438;SDS011;206;48.782;9.252;2023-07-30T14:05:39;2.63;;;1.73;;
438;SDS011;206;48.782;9.252;2023-07-30T14:08:04;6.57;;;1.70;;
438;SDS011;206;48.782;9.252;2023-07-30T14:10:30;2.23;;;1.90;;
438;SDS011;206;48.782;9.252;2023-07-30T14:12:55;1.53;;;1.50;;
438;SDS011;206;48.782;9.252;2023-07-30T14:15:21;2.70;;;2.00;;
438;SDS011;206;48.782;9.252;2023-07-30T14:17:47;4.27;;;2.20;;
438;SDS011;206;48.782;9.252;2023-07-30T14:20:13;3.93;;;2.00;;
438;SDS011;206;48.782;9.252;2023-07-30T14:22:38;4.07;;;2.17;;
438;SDS011;206;48.782;9.252;2023-07-30T14:25:04;1.90;;;1.40;;
438;SDS011;206;48.782;9.252;2023-07-30T14:27:30;2.27;;;1.50;;
438;SDS011;206;48.782;9.252;2023-07-30T14:29:56;4.27;;;2.00;;
438;SDS011;206;48.782;9.252;2023-07-30T14:32:22;3.37;;;1.97;;
438;SDS011;206;48.782;9.252;2023-07-30T14:34:48;6.40;;;2.53;;
438;SDS011;206;48.782;9.252;2023-07-30T14:37:14;1.97;;;1.53;;
438;SDS011;206;48.782;9.252;2023-07-30T14:39:40;2.63;;;1.70;;
438;SDS011;206;48.782;9.252;2023-07-30T14:42:07;3.20;;;1.93;;
438;SDS011;206;48.782;9.252;2023-07-30T14:44:33;3.53;;;1.53;;
438;SDS011;206;48.782;9.252;2023-07-30T14:46:59;4.97;;;1.70;;
438;SDS011;206;48.782;9.252;2023-07-30T14:49:25;5.80;;;1.93;;
438;SDS011;206;48.782;9.252;2023-07-30T14:51:52;1.37;;;1.27;;
438;SDS011;206;48.782;9.252;2023-07-30T14:54:17;3.63;;;1.43;;
438;SDS011;206;48.782;9.252;2023-07-30T14:56:43;2.93;;;1.60;;
438;SDS011;206;48.782;9.252;2023-07-30T14:59:09;5.80;;;1.87;;
438;SDS011;206;48.782;9.252;2023-07-30T15:01:35;2.30;;;1.60;;
438;SDS011;206;48.782;9.252;2023-07-30T15:04:01;2.60;;;1.87;;
438;SDS011;206;48.782;9.252;2023-07-30T15:06:27;2.30;;;1.50;;
438;SDS011;206;48.782;9.252;2023-07-30T15:08:54;3.90;;;1.73;;
438;SDS011;206;48.782;9.252;2023-07-30T15:11:19;5.67;;;1.70;;
438;SDS011;206;48.782;9.252;2023-07-30T15:13:45;2.50;;;1.57;;
438;SDS011;206;48.782;9.252;2023-07-30T15:16:10;3.73;;;1.83;;
438;SDS011;206;48.782;9.252;2023-07-30T15:18:36;2.50;;;1.57;;
438;SDS011;206;48.782;9.252;2023-07-30T15:21:01;3.83;;;2.30;;
438;SDS011;206;48.782;9.252;2023-07-30T15:23:27;4.17;;;1.93;;
438;SDS011;206;48.782;9.252;2023-07-30T15:25:53;3.33;;;1.73;;
438;SDS011;206;48.782;9.252;2023-07-30T15:28:19;4.97;;;1.63;;
438;SDS011;206;48.782;9.252;2023-07-30T15:30:45;3.57;;;1.73;;
438;SDS011;206;48.782;9.252;2023-07-30T15:33:11;2.40;;;1.83;;
438;SDS011;206;48.782;9.252;2023-07-30T15:35:37;2.60;;;1.57;;
438;SDS011;206;48.782;9.252;2023-07-30T15:38:05;2.43;;;1.87;;
438;SDS011;206;48.782;9.252;2023-07-30T15:40:32;1.30;;;1.20;;
438;SDS011;206;48.782;9.252;2023-07-30T15:42:57;2.83;;;1.43;;
438;SDS011;206;48.782;9.252;2023-07-30T15:45:23;1.83;;;1.20;;
438;SDS011;206;48.782;9.252;2023-07-30T15:47:49;4.37;;;1.50;;
438;SDS011;206;48.782;9.252;2023-07-30T15:50:15;4.70;;;1.90;;
438;SDS011;206;48.782;9.252;2023-07-30T15:52:41;2.17;;;1.57;;